Flight Track Log - Related Links

Times and Time Zones

All times are in EDT time to prevent confusion due to time zone crossing. See the CMP472 flight status page for this flight to view local times or setup timezone preferences in your user account.

Time Position Orientation Groundspeed Altitude Reporting Facility
EDT Latitude Longitude Course Direction KTS MPH feet Rate Location/Type
Sun 01:03:58 PM 9.1120 -79.3560 28° Northeast 181 208 2,700  Level FlightAware ADS-B
Sun 01:04:28 PM 9.1340 -79.3440 28° Northeast 186 214 3,700 1,636 Climbing FlightAware ADS-B
Sun 01:04:53 PM 9.1550 -79.3320 29° Northeast 212 244 4,200 933 Climbing FlightAware ADS-B
Sun 01:05:13 PM 9.1730 -79.3210 31° Northeast 250 288 4,400 1,200 Climbing FlightAware ADS-B
Sun 01:05:33 PM 9.1950 -79.3080 30° Northeast 261 300 5,000 2,267 Climbing FlightAware ADS-B
Sun 01:05:58 PM 9.2240 -79.2960 22° Northeast 275 316 6,100 2,400 Climbing FlightAware ADS-B
Sun 01:06:08 PM 9.2370 -79.2970 356° North 277 319 6,400 2,400 Climbing FlightAware ADS-B
Sun 01:06:28 PM 9.2600 -79.3130 326° Northwest 292 336 7,300 2,743 Climbing FlightAware ADS-B
Sun 01:06:43 PM 9.2690 -79.3320 296° West 293 337 8,000 2,600 Climbing FlightAware ADS-B
Sun 01:06:58 PM 9.2770 -79.3510 293° West 296 341 8,600 2,400 Climbing FlightAware ADS-B
Sun 01:07:23 PM 9.2910 -79.3840 293° West 301 346 9,600 1,971 Climbing FlightAware ADS-B
Sun 01:08:08 PM 9.3100 -79.4460 287° West 327 376 10,900 1,440 Climbing FlightAware ADS-B
Sun 01:08:38 PM 9.3210 -79.4940 283° West 357 411 11,400 1,400 Climbing FlightAware ADS-B
Sun 01:09:08 PM 9.3320 -79.5430 283° West 369 425 12,300 1,886 Climbing FlightAware ADS-B
Sun 01:09:48 PM 9.3560 -79.6100 290° West 377 434 13,600 2,118 Climbing FlightAware ADS-B
Sun 01:10:33 PM 9.3890 -79.6830 295° West 385 443 15,300 1,694 Climbing FlightAware ADS-B
Sun 01:11:13 PM 9.4210 -79.7510 296° West 406 467 16,000 1,271 Climbing FlightAware ADS-B
Sun 01:11:58 PM 9.4570 -79.8290 295° West 424 488 17,100 1,350 Climbing FlightAware ADS-B
Sun 01:12:33 PM 9.4860 -79.8930 295° West 436 502 17,800 1,425 Climbing FlightAware ADS-B
Sun 01:13:18 PM 9.5230 -79.9770 294° West 441 507 19,000 1,650 Climbing FlightAware ADS-B
Sun 01:13:53 PM 9.5530 -80.0440 294° West 441 507 20,000 1,600 Climbing FlightAware ADS-B
Sun 01:14:18 PM 9.5750 -80.0910 295° West 444 511 20,600 1,280 Climbing FlightAware ADS-B
Sun 01:15:08 PM 9.6190 -80.1890 294° West 456 525 21,600 667 Climbing FlightAware ADS-B
Sun 01:15:48 PM 9.6480 -80.2580 293° West 456 525 21,600 1,425 Level FlightAware ADS-B
Sun 01:16:28 PM 9.6880 -80.3470 295° West 462 532 23,500 1,971 Climbing FlightAware ADS-B
Sun 01:16:58 PM 9.7160 -80.4080 295° West 474 545 23,900 857 Climbing FlightAware ADS-B
Sun 01:17:38 PM 9.7510 -80.4850 295° West 478 550 24,500 706 Climbing FlightAware ADS-B
Sun 01:18:23 PM 9.7910 -80.5770 294° West 479 551 24,900 282 Climbing FlightAware ADS-B
Sun 01:19:03 PM 9.8200 -80.6470 293° West 479 551 24,900  Level FlightAware ADS-B
Sun 01:19:43 PM 9.8500 -80.7180 293° West 479 551 24,900  Level FlightAware ADS-B
Sun 01:20:23 PM 9.8790 -80.7880 293° West 479 551 24,900  Level FlightAware ADS-B
Sun 01:21:03 PM 9.9080 -80.8590 293° West 479 551 24,900  Level FlightAware ADS-B
Sun 01:21:43 PM 9.9380 -80.9290 294° West 479 551 24,900 205 Level FlightAware ADS-B
Sun 01:24:00 PM 10.1104 -81.1317 302° West  Level Estimated
Sun 01:25:00 PM 10.1729 -81.2303 303° West  Level FlightAware Approximate
Sun 01:26:00 PM 10.2354 -81.3290 303° West  Level FlightAware Approximate
Sun 01:27:00 PM 10.2979 -81.4278 303° West  Level FlightAware Approximate
Sun 01:28:00 PM 10.3604 -81.5266 303° West  Level FlightAware Approximate
Sun 01:29:00 PM 10.4228 -81.6254 303° West  Level FlightAware Approximate
Sun 01:30:00 PM 10.4852 -81.7242 303° West  Level FlightAware Approximate
Sun 01:31:00 PM 10.5475 -81.8231 303° West  Level FlightAware Approximate
Sun 01:32:00 PM 10.6098 -81.9221 303° West  Level FlightAware Approximate
Sun 01:33:00 PM 10.6721 -82.0210 303° West  Level FlightAware Approximate
Sun 01:34:00 PM 10.7344 -82.1201 303° West  Level FlightAware Approximate
Sun 01:35:00 PM 10.7966 -82.2191 303° West  Level FlightAware Approximate
Sun 01:36:00 PM 10.8588 -82.3182 303° West  Level FlightAware Approximate
Sun 01:37:00 PM 10.9210 -82.4174 303° West  Level FlightAware Approximate
Sun 01:38:00 PM 10.9831 -82.5165 303° West  Level FlightAware Approximate
Sun 01:39:00 PM 11.0452 -82.6158 303° West  Level FlightAware Approximate
Sun 01:40:00 PM 11.1080 -82.7191 301° West  Level FlightAware Approximate
Sun 01:41:00 PM 11.1681 -82.8197 301° West  Level FlightAware Approximate
Sun 01:42:00 PM 11.2281 -82.9203 301° West  Level FlightAware Approximate
Sun 01:43:00 PM 11.2881 -83.0209 301° West  Level FlightAware Approximate
Sun 01:44:00 PM 11.3481 -83.1216 301° West  Level FlightAware Approximate
Sun 01:45:00 PM 11.4080 -83.2224 301° West  Level FlightAware Approximate
Sun 01:46:00 PM 11.4679 -83.3231 301° West  Level FlightAware Approximate
Sun 01:47:00 PM 11.5277 -83.4239 301° West  Level FlightAware Approximate
Sun 01:48:00 PM 11.5876 -83.5248 301° West  Level FlightAware Approximate
Sun 01:49:00 PM 11.6474 -83.6257 301° West  Level FlightAware Approximate
Sun 01:50:00 PM 11.7071 -83.7266 301° West  Level FlightAware Approximate
Sun 01:51:00 PM 11.7668 -83.8276 301° West  Level FlightAware Approximate
Sun 01:52:00 PM 11.8265 -83.9286 301° West  Level FlightAware Approximate
Sun 01:53:00 PM 11.8862 -84.0297 301° West  Level FlightAware Approximate
Sun 01:54:00 PM 11.9458 -84.1308 301° West  Level FlightAware Approximate
Sun 01:55:00 PM 12.0054 -84.2320 301° West  Level FlightAware Approximate
Sun 01:56:00 PM 12.0649 -84.3332 301° West  Level FlightAware Approximate
Sun 01:57:00 PM 12.1244 -84.4344 301° West  Level FlightAware Approximate
Sun 01:58:00 PM 12.1839 -84.5358 301° West  Level FlightAware Approximate
Sun 01:59:00 PM 12.2433 -84.6371 301° West  Level FlightAware Approximate
Sun 02:00:00 PM 12.3027 -84.7385 301° West  Level FlightAware Approximate
Sun 02:01:00 PM 12.3621 -84.8399 301° West  Level FlightAware Approximate
Sun 02:02:00 PM 12.4214 -84.9414 301° West  Level FlightAware Approximate
Sun 02:03:00 PM 12.4812 -85.0425 301° West  Level FlightAware Approximate
Sun 02:04:00 PM 12.5410 -85.1438 301° West  Level FlightAware Approximate
Sun 02:05:00 PM 12.6008 -85.2450 301° West  Level FlightAware Approximate
Sun 02:06:00 PM 12.6605 -85.3464 301° West  Level FlightAware Approximate
Sun 02:07:00 PM 12.7202 -85.4477 301° West  Level FlightAware Approximate
Sun 02:08:00 PM 12.7799 -85.5491 301° West  Level FlightAware Approximate
Sun 02:09:00 PM 12.8395 -85.6506 301° West  Level FlightAware Approximate
Sun 02:10:00 PM 12.8991 -85.7521 301° West  Level FlightAware Approximate
Sun 02:11:00 PM 12.9586 -85.8537 301° West  Level FlightAware Approximate
Sun 02:12:00 PM 13.0181 -85.9553 301° West  Level FlightAware Approximate
Sun 02:13:00 PM 13.0775 -86.0570 301° West  Level FlightAware Approximate
Sun 02:14:00 PM 13.1369 -86.1587 301° West  Level FlightAware Approximate
Sun 02:15:00 PM 13.1963 -86.2604 301° West  Level FlightAware Approximate
Sun 02:15:18 PM 13.6750 -87.2600 301° West 470 541 36,000  Level FlightAware ADS-B
Sun 02:15:23 PM 13.6800 -87.2670 306° West 470 541 36,000  Level FlightAware ADS-B
Sun 02:16:28 PM 13.7560 -87.3950 301° West 468 539 36,000  Level FlightAware ADS-B
Sun 02:17:28 PM 13.8230 -87.5080 301° West 467 537 36,000  Level FlightAware ADS-B
Sun 02:19:13 PM 13.9380 -87.7000 302° West 465 535 36,000  Level FlightAware ADS-B
Sun 02:19:48 PM 13.9770 -87.7670 301° West 464 534 36,000  Level FlightAware ADS-B
Sun 02:20:28 PM 14.0210 -87.8410 302° West 464 534 36,000  Level FlightAware ADS-B
Sun 02:21:38 PM 14.1000 -87.9740 301° West 468 539 36,000  Level FlightAware ADS-B
Sun 02:22:18 PM 14.1460 -88.0520 301° West 468 539 36,000  Level FlightAware ADS-B
Sun 02:23:03 PM 14.1970 -88.1370 302° West 467 537 36,000  Level FlightAware ADS-B
Sun 02:24:03 PM 14.2630 -88.2500 301° West 465 535 36,000  Level FlightAware ADS-B
Sun 02:24:43 PM 14.3090 -88.3270 302° West 464 534 36,000  Level FlightAware ADS-B
Sun 02:25:28 PM 14.3580 -88.4110 301° West 463 533 36,000  Level FlightAware ADS-B
Sun 02:25:53 PM 14.3870 -88.4590 302° West 462 532 36,000  Level FlightAware ADS-B
Sun 02:26:43 PM 14.4420 -88.5530 301° West 461 531 36,000  Level FlightAware ADS-B
Sun 02:27:38 PM 14.5030 -88.6560 301° West 463 533 36,000  Level FlightAware ADS-B
Sun 02:28:18 PM 14.5480 -88.7330 301° West 464 534 36,000  Level FlightAware ADS-B
Sun 02:28:58 PM 14.5920 -88.8080 301° West 464 534 36,000  Level FlightAware ADS-B
Sun 02:29:38 PM 14.6370 -88.8850 301° West 464 534 36,000  Level FlightAware ADS-B
Sun 02:30:13 PM 14.6770 -88.9520 302° West 465 535 36,000  Level FlightAware ADS-B
Sun 02:30:48 PM 14.7150 -89.0180 301° West 464 534 36,000  Level FlightAware ADS-B
Sun 02:31:18 PM 14.7490 -89.0760 301° West 464 534 36,000  Level FlightAware ADS-B
Sun 02:31:58 PM 14.7920 -89.1510 301° West 464 534 36,000  Level FlightAware ADS-B
Sun 02:32:38 PM 14.8370 -89.2270 301° West 458 527 36,000  Level FlightAware ADS-B
Sun 02:33:23 PM 14.8860 -89.3120 301° West 456 525 36,000  Level FlightAware ADS-B
Sun 02:34:03 PM 14.9310 -89.3880 302° West 455 524 36,000  Level FlightAware ADS-B
Sun 02:34:48 PM 14.9790 -89.4710 301° West 453 521 36,000  Level FlightAware ADS-B
Sun 02:35:18 PM 15.0130 -89.5290 301° West 453 521 36,000  Level FlightAware ADS-B
Sun 02:35:48 PM 15.0450 -89.5840 301° West 453 521 36,000  Level FlightAware ADS-B
Sun 02:36:33 PM 15.0940 -89.6690 301° West 452 520 36,000  Level FlightAware ADS-B
Sun 02:37:13 PM 15.1370 -89.7440 301° West 453 521 36,000  Level FlightAware ADS-B
Sun 02:37:43 PM 15.1710 -89.8010 302° West 454 522 36,000  Level FlightAware ADS-B
Sun 02:38:23 PM 15.2140 -89.8750 301° West 456 525 36,000  Level FlightAware ADS-B
Sun 02:39:03 PM 15.2580 -89.9520 301° West 459 528 36,000  Level FlightAware ADS-B
Sun 02:39:38 PM 15.2960 -90.0180 301° West 460 529 36,000  Level FlightAware ADS-B
Sun 02:40:18 PM 15.3410 -90.0960 301° West 462 532 36,000  Level FlightAware ADS-B
Sun 02:40:58 PM 15.3850 -90.1720 301° West 468 539 36,000  Level FlightAware ADS-B
Sun 02:41:33 PM 15.4240 -90.2390 301° West 469 540 36,000  Level FlightAware ADS-B
Sun 02:42:13 PM 15.4680 -90.3160 301° West 469 540 36,000  Level FlightAware ADS-B
Sun 02:42:58 PM 15.5170 -90.4020 301° West 469 540 36,000  Level FlightAware ADS-B
Sun 02:43:28 PM 15.5490 -90.4580 301° West 462 532 36,000  Level FlightAware ADS-B
Sun 02:44:18 PM 15.6050 -90.5550 301° West 459 528 36,000  Level FlightAware ADS-B
Sun 02:45:13 PM 15.6630 -90.6590 300° West 459 528 36,000  Level FlightAware ADS-B
Sun 02:45:53 PM 15.6980 -90.7250 299° West 459 528 36,000  Level FlightAware ADS-B
Sun 02:46:48 PM 15.7720 -90.8470 302° West 458 527 36,000  Level FlightAware ADS-B
Sun 02:47:23 PM 15.8040 -90.9060 299° West 458 527 36,000  Level FlightAware ADS-B
Sun 02:48:03 PM 15.8380 -90.9710 299° West 458 527 36,000  Level FlightAware ADS-B
Sun 02:48:53 PM 15.8820 -91.0530 299° West 458 527 36,000  Level FlightAware ADS-B
Sun 02:49:33 PM 15.9170 -91.1180 299° West 458 527 36,000  Level FlightAware ADS-B
Sun 02:50:13 PM 15.9520 -91.1840 299° West 458 527 36,000  Level FlightAware ADS-B
Sun 02:50:53 PM 15.9870 -91.2490 299° West 458 527 36,000  Level FlightAware ADS-B
Sun 02:51:23 PM 16.0130 -91.2990 298° West 458 527 36,000  Level FlightAware ADS-B
Sun 02:52:03 PM 16.0480 -91.3640 299° West 458 527 36,000  Level FlightAware ADS-B
Sun 02:52:33 PM 16.0740 -91.4130 299° West 458 527 36,000  Level FlightAware ADS-B
Sun 02:53:13 PM 16.1090 -91.4790 299° West 458 527 36,000  Level FlightAware ADS-B
Sun 02:54:03 PM 16.1530 -91.5610 299° West 458 527 36,000  Level FlightAware ADS-B
Sun 02:54:43 PM 16.1880 -91.6270 299° West 458 527 36,000  Level FlightAware ADS-B
Sun 02:55:23 PM 16.2230 -91.6920 299° West 458 527 36,000  Level FlightAware ADS-B
Sun 02:56:03 PM 16.2580 -91.7580 299° West 458 527 36,000  Level FlightAware ADS-B
Sun 02:56:43 PM 16.2920 -91.8230 299° West 458 527 36,000 14 Level FlightAware ADS-B
Sun 02:59:00 PM 16.4648 -92.0307 311° West  Level FlightAware Approximate
Sun 03:00:00 PM 16.5404 -92.1218 311° West  Level FlightAware Approximate
Sun 03:01:00 PM 16.6160 -92.2129 311° West  Level FlightAware Approximate
Sun 03:02:00 PM 16.6915 -92.3041 311° West  Level FlightAware Approximate
Sun 03:03:00 PM 16.7670 -92.3954 311° West  Level FlightAware Approximate
Sun 03:04:00 PM 16.8424 -92.4868 311° West  Level FlightAware Approximate
Sun 03:05:00 PM 16.9179 -92.5782 311° West  Level FlightAware Approximate
Sun 03:06:00 PM 16.9932 -92.6697 311° West  Level FlightAware Approximate
Sun 03:07:00 PM 17.0686 -92.7613 311° West  Level FlightAware Approximate
Sun 03:08:00 PM 17.1438 -92.8530 311° West  Level FlightAware Approximate
Sun 03:09:00 PM 17.2191 -92.9447 311° West  Level FlightAware Approximate
Sun 03:10:00 PM 17.2943 -93.0365 311° West  Level FlightAware Approximate
Sun 03:11:00 PM 17.3694 -93.1284 311° West  Level FlightAware Approximate
Sun 03:12:00 PM 17.4446 -93.2204 311° West  Level FlightAware Approximate
Sun 03:13:00 PM 17.5196 -93.3124 311° West  Level FlightAware Approximate
Sun 03:14:00 PM 17.5947 -93.4045 311° West  Level FlightAware Approximate
Sun 03:15:00 PM 17.6697 -93.4967 310° West  Level FlightAware Approximate
Sun 03:16:00 PM 17.7446 -93.5890 310° West  Level FlightAware Approximate
Sun 03:17:00 PM 17.8195 -93.6813 310° West  Level FlightAware Approximate
Sun 03:18:00 PM 17.8944 -93.7737 310° West  Level FlightAware Approximate
Sun 03:19:00 PM 17.9692 -93.8662 310° West  Level FlightAware Approximate
Sun 03:20:00 PM 18.0440 -93.9588 310° West  Level FlightAware Approximate
Sun 03:21:00 PM 18.1187 -94.0514 310° West  Level FlightAware Approximate
Sun 03:22:00 PM 18.1934 -94.1441 310° West  Level FlightAware Approximate
Sun 03:23:00 PM 18.2681 -94.2370 310° West  Level FlightAware Approximate
Sun 03:24:00 PM 18.3427 -94.3298 310° West  Level FlightAware Approximate
Sun 03:25:00 PM 18.4172 -94.4228 310° West  Level FlightAware Approximate
Sun 03:26:00 PM 18.4917 -94.5159 310° West  Level FlightAware Approximate
Sun 03:27:00 PM 18.5662 -94.6090 310° West  Level FlightAware Approximate
Sun 03:28:00 PM 18.6406 -94.7022 310° West  Level FlightAware Approximate
Sun 03:29:00 PM 18.7150 -94.7955 310° West  Level FlightAware Approximate
Sun 03:30:00 PM 18.7893 -94.8889 310° West  Level FlightAware Approximate
Sun 03:31:00 PM 18.8636 -94.9824 310° West  Level FlightAware Approximate
Sun 03:32:00 PM 18.9378 -95.0759 310° West  Level FlightAware Approximate
Sun 03:33:00 PM 19.0113 -95.1703 309° West  Level FlightAware Approximate
Sun 03:34:00 PM 19.0833 -95.2659 309° West  Level FlightAware Approximate
Sun 03:35:00 PM 19.1553 -95.3615 309° West  Level FlightAware Approximate
Sun 03:36:00 PM 19.2272 -95.4572 309° West  Level FlightAware Approximate
Sun 03:37:00 PM 19.2991 -95.5530 308° West  Level FlightAware Approximate
Sun 03:38:00 PM 19.3709 -95.6488 308° West  Level FlightAware Approximate
Sun 03:39:00 PM 19.4427 -95.7448 308° West  Level FlightAware Approximate
Sun 03:40:00 PM 19.5144 -95.8408 308° West  Level FlightAware Approximate
Sun 03:41:00 PM 19.5861 -95.9370 308° West  Level FlightAware Approximate
Sun 03:42:00 PM 19.6577 -96.0332 308° West  Level FlightAware Approximate
Sun 03:43:00 PM 19.7293 -96.1294 308° West  Level FlightAware Approximate
Sun 03:44:00 PM 19.8008 -96.2258 308° West  Level FlightAware Approximate
Sun 03:45:00 PM 19.8723 -96.3223 308° West  Level FlightAware Approximate
Sun 03:46:00 PM 19.9437 -96.4189 308° West  Level FlightAware Approximate
Sun 03:47:00 PM 20.0151 -96.5155 308° West  Level FlightAware Approximate
Sun 03:48:00 PM 20.0864 -96.6122 308° West  Level FlightAware Approximate
Sun 03:49:00 PM 20.1576 -96.7090 308° West  Level FlightAware Approximate
Sun 03:50:00 PM 20.2316 -96.8035 312° West  Level FlightAware Approximate
Sun 03:51:00 PM 20.3096 -96.8943 313° West  Level FlightAware Approximate
Sun 03:52:00 PM 20.3884 -96.9844 313° West  Level FlightAware Approximate
Sun 03:53:00 PM 20.4671 -97.0746 313° West  Level FlightAware Approximate
Sun 03:54:00 PM 20.5457 -97.1649 313° West  Level FlightAware Approximate
Sun 03:55:00 PM 20.6244 -97.2553 313° West  Level FlightAware Approximate
Sun 03:56:00 PM 20.7030 -97.3458 313° West  Level FlightAware Approximate
Sun 03:57:00 PM 20.7815 -97.4364 313° West  Level FlightAware Approximate
Sun 03:58:00 PM 20.8600 -97.5270 313° West  Level FlightAware Approximate
Sun 03:59:00 PM 20.9384 -97.6178 313° West  Level FlightAware Approximate
Sun 04:00:00 PM 21.0168 -97.7087 313° West  Level FlightAware Approximate
Sun 04:01:00 PM 21.0951 -97.7996 313° West  Level FlightAware Approximate
Sun 04:02:00 PM 21.1734 -97.8907 313° West  Level FlightAware Approximate
Sun 04:03:00 PM 21.2517 -97.9818 313° West  Level FlightAware Approximate
Sun 04:04:00 PM 21.3299 -98.0731 313° West  Level FlightAware Approximate
Sun 04:05:00 PM 21.4080 -98.1644 313° West  Level FlightAware Approximate
Sun 04:06:00 PM 21.4861 -98.2559 313° West  Level FlightAware Approximate
Sun 04:07:00 PM 21.5641 -98.3474 313° West  Level FlightAware Approximate
Sun 04:08:00 PM 21.6422 -98.4390 312° West  Level FlightAware Approximate
Sun 04:09:00 PM 21.7201 -98.5308 312° West  Level FlightAware Approximate
Sun 04:10:00 PM 21.7980 -98.6226 312° West  Level FlightAware Approximate
Sun 04:11:00 PM 21.8758 -98.7145 312° West  Level FlightAware Approximate
Sun 04:12:00 PM 21.9536 -98.8066 312° West  Level FlightAware Approximate
Sun 04:13:00 PM 22.0314 -98.8987 312° West  Level FlightAware Approximate
Sun 04:14:00 PM 22.1091 -98.9910 312° West  Level FlightAware Approximate
Sun 04:15:00 PM 22.1893 -99.0806 314° West  Level FlightAware Approximate
Sun 04:16:00 PM 22.2696 -99.1703 311° West  Level FlightAware Approximate
Sun 04:17:00 PM 22.3452 -99.2648 311° West  Level FlightAware Approximate
Sun 04:18:00 PM 22.4213 -99.3587 312° West  Level FlightAware Approximate
Sun 04:19:00 PM 22.4988 -99.4513 312° West  Level FlightAware Approximate
Sun 04:20:00 PM 22.5763 -99.5441 312° West  Level FlightAware Approximate
Sun 04:21:00 PM 22.6538 -99.6369 312° West  Level FlightAware Approximate
Sun 04:22:00 PM 22.7312 -99.7298 312° West  Level FlightAware Approximate
Sun 04:23:00 PM 22.8085 -99.8229 312° West  Level FlightAware Approximate
Sun 04:24:00 PM 22.8858 -99.9160 312° West  Level FlightAware Approximate
Sun 04:25:00 PM 22.9631 -100.0093 312° West  Level FlightAware Approximate
Sun 04:26:00 PM 23.0403 -100.1026 312° West  Level FlightAware Approximate
Sun 04:27:00 PM 23.1174 -100.1961 312° West  Level FlightAware Approximate
Sun 04:28:00 PM 23.1945 -100.2897 312° West  Level FlightAware Approximate
Sun 04:29:00 PM 23.2703 -100.3845 311° West  Level FlightAware Approximate
Sun 04:30:00 PM 23.3457 -100.4798 311° West  Level FlightAware Approximate
Sun 04:31:00 PM 23.4209 -100.5753 311° West  Level FlightAware Approximate
Sun 04:32:00 PM 23.4987 -100.6682 313° West  Level FlightAware Approximate
Sun 04:33:00 PM 23.5769 -100.7610 313° West  Level FlightAware Approximate
Sun 04:34:00 PM 23.6550 -100.8538 313° West  Level FlightAware Approximate
Sun 04:35:00 PM 23.7330 -100.9468 313° West  Level FlightAware Approximate
Sun 04:36:00 PM 23.8110 -101.0399 312° West  Level FlightAware Approximate
Sun 04:37:00 PM 23.8890 -101.1331 312° West  Level FlightAware Approximate
Sun 04:38:00 PM 23.9669 -101.2264 312° West  Level FlightAware Approximate
Sun 04:39:00 PM 24.0447 -101.3199 312° West  Level FlightAware Approximate
Sun 04:40:00 PM 24.1225 -101.4134 312° West  Level FlightAware Approximate
Sun 04:41:00 PM 24.1956 -101.5111 306° West  Level FlightAware Approximate
Sun 04:42:00 PM 24.2626 -101.6143 305° West  Level FlightAware Approximate
Sun 04:43:00 PM 24.3296 -101.7175 305° West  Level FlightAware Approximate
Sun 04:44:00 PM 24.3965 -101.8209 305° West  Level FlightAware Approximate
Sun 04:45:00 PM 24.4633 -101.9244 305° West  Level FlightAware Approximate
Sun 04:46:00 PM 24.5301 -102.0280 305° West  Level FlightAware Approximate
Sun 04:47:00 PM 24.5967 -102.1317 305° West  Level FlightAware Approximate
Sun 04:48:00 PM 24.6634 -102.2355 305° West  Level FlightAware Approximate
Sun 04:49:00 PM 24.7314 -102.3382 306° West  Level FlightAware Approximate
Sun 04:50:00 PM 24.8000 -102.4406 306° West  Level FlightAware Approximate
Sun 04:51:00 PM 24.8686 -102.5430 306° West  Level FlightAware Approximate
Sun 04:52:00 PM 24.9371 -102.6456 306° West  Level FlightAware Approximate
Sun 04:53:00 PM 25.0055 -102.7483 306° West  Level FlightAware Approximate
Sun 04:54:00 PM 25.0738 -102.8510 306° West  Level FlightAware Approximate
Sun 04:55:00 PM 25.1420 -102.9539 306° West  Level FlightAware Approximate
Sun 04:56:00 PM 25.2103 -103.0570 306° West  Level FlightAware Approximate
Sun 04:57:00 PM 25.2781 -103.1603 306° West  Level FlightAware Approximate
Sun 04:58:00 PM 25.3459 -103.2637 306° West  Level FlightAware Approximate
Sun 04:59:00 PM 25.4137 -103.3673 306° West  Level FlightAware Approximate
Sun 05:00:00 PM 25.4813 -103.4710 306° West  Level FlightAware Approximate
Sun 05:01:00 PM 25.5489 -103.5748 306° West  Level FlightAware Approximate
Sun 05:02:00 PM 25.6164 -103.6787 306° West  Level FlightAware Approximate
Sun 05:03:00 PM 25.6838 -103.7828 306° West  Level FlightAware Approximate
Sun 05:04:00 PM 25.7512 -103.8869 306° West  Level FlightAware Approximate
Sun 05:05:00 PM 25.8184 -103.9912 306° West  Level FlightAware Approximate
Sun 05:06:00 PM 25.8856 -104.0956 306° West  Level FlightAware Approximate
Sun 05:07:00 PM 25.9528 -104.2001 306° West  Level FlightAware Approximate
Sun 05:08:00 PM 26.0198 -104.3048 306° West  Level FlightAware Approximate
Sun 05:09:00 PM 26.0868 -104.4095 305° West  Level FlightAware Approximate
Sun 05:10:00 PM 26.1537 -104.5144 305° West  Level FlightAware Approximate
Sun 05:11:00 PM 26.2205 -104.6194 305° West  Level FlightAware Approximate
Sun 05:12:00 PM 26.2873 -104.7245 305° West  Level FlightAware Approximate
Sun 05:13:00 PM 26.3539 -104.8297 305° West  Level FlightAware Approximate
Sun 05:14:00 PM 26.4205 -104.9351 305° West  Level FlightAware Approximate
Sun 05:15:00 PM 26.4871 -105.0406 305° West  Level FlightAware Approximate
Sun 05:16:00 PM 26.5535 -105.1461 305° West  Level FlightAware Approximate
Sun 05:17:00 PM 26.6199 -105.2519 305° West  Level FlightAware Approximate
Sun 05:18:00 PM 26.6861 -105.3577 305° West  Level FlightAware Approximate
Sun 05:19:00 PM 26.7524 -105.4637 305° West  Level FlightAware Approximate
Sun 05:19:18 PM 27.3520 -106.3300 305° West 413 475 38,000  Level FlightAware ADS-B
Sun 05:20:00 PM 26.8185 -105.5698 305° West  Level FlightAware Approximate
Sun 05:20:08 PM 27.4080 -106.4190 305° West 414 476 38,000  Level FlightAware ADS-B
Sun 05:20:48 PM 27.4510 -106.4890 305° West 412 474 38,000  Level FlightAware ADS-B
Sun 05:21:43 PM 27.5070 -106.5790 305° West 411 473 38,000  Level FlightAware ADS-B
Sun 05:22:28 PM 27.5520 -106.6530 304° West 411 473 38,000  Level FlightAware ADS-B
Sun 05:23:08 PM 27.5880 -106.7140 304° West 411 473 38,000  Level FlightAware ADS-B
Sun 05:23:58 PM 27.6330 -106.7890 304° West 411 473 38,000  Level FlightAware ADS-B
Sun 05:24:28 PM 27.6600 -106.8350 304° West 411 473 38,000  Level FlightAware ADS-B
Sun 05:25:08 PM 27.6960 -106.8950 304° West 411 473 38,000  Level FlightAware ADS-B
Sun 05:25:48 PM 27.7330 -106.9560 304° West 411 473 38,000  Level FlightAware ADS-B
Sun 05:26:28 PM 27.7690 -107.0160 304° West 411 473 38,000  Level FlightAware ADS-B
Sun 05:27:08 PM 27.8050 -107.0770 304° West 411 473 38,000  Level FlightAware ADS-B
Sun 05:27:58 PM 27.8500 -107.1530 304° West 411 473 38,000  Level FlightAware ADS-B
Sun 05:28:38 PM 27.8860 -107.2130 304° West 411 473 38,000  Level FlightAware ADS-B
Sun 05:29:18 PM 27.9220 -107.2740 304° West 411 473 38,000  Level FlightAware ADS-B
Sun 05:29:58 PM 27.9580 -107.3350 304° West 411 473 38,000  Level FlightAware ADS-B
Sun 05:30:38 PM 27.9950 -107.3950 305° West 411 473 38,000  Level FlightAware ADS-B
Sun 05:31:28 PM 28.0400 -107.4710 304° West 411 473 38,000  Level FlightAware ADS-B
Sun 05:34:00 PM 28.1913 -107.7550 301° West  Level FlightAware Approximate
Sun 05:35:00 PM 28.2508 -107.8673 301° West  Level FlightAware Approximate
Sun 05:36:00 PM 28.3103 -107.9798 301° West  Level FlightAware Approximate
Sun 05:37:00 PM 28.3697 -108.0923 301° West  Level FlightAware Approximate
Sun 05:38:00 PM 28.4289 -108.2050 301° West  Level FlightAware Approximate
Sun 05:39:00 PM 28.4881 -108.3179 301° West  Level FlightAware Approximate
Sun 05:40:00 PM 28.5472 -108.4308 301° West  Level FlightAware Approximate
Sun 05:41:00 PM 28.6090 -108.5430 304° West  Level FlightAware Approximate
Sun 05:42:00 PM 28.6738 -108.6520 304° West  Level FlightAware Approximate
Sun 05:43:00 PM 28.7385 -108.7611 304° West  Level FlightAware Approximate
Sun 05:44:00 PM 28.8032 -108.8703 304° West  Level FlightAware Approximate
Sun 05:45:00 PM 28.8677 -108.9796 304° West  Level FlightAware Approximate
Sun 05:46:00 PM 28.9322 -109.0891 304° West  Level FlightAware Approximate
Sun 05:47:00 PM 28.9965 -109.1987 304° West  Level FlightAware Approximate
Sun 05:48:00 PM 29.0608 -109.3085 304° West  Level FlightAware Approximate
Sun 05:49:00 PM 29.1250 -109.4184 304° West  Level FlightAware Approximate
Sun 05:50:00 PM 29.1891 -109.5284 304° West  Level FlightAware Approximate
Sun 05:51:00 PM 29.2531 -109.6386 304° West  Level FlightAware Approximate
Sun 05:52:00 PM 29.3170 -109.7489 304° West  Level FlightAware Approximate
Sun 05:53:00 PM 29.3809 -109.8593 304° West  Level FlightAware Approximate
Sun 05:54:00 PM 29.4446 -109.9699 304° West  Level FlightAware Approximate
Sun 05:55:00 PM 29.5083 -110.0806 303° West  Level FlightAware Approximate
Sun 05:56:00 PM 29.5718 -110.1915 303° West  Level FlightAware Approximate
Sun 05:57:00 PM 29.6353 -110.3025 303° West  Level FlightAware Approximate
Sun 05:58:00 PM 29.6987 -110.4136 303° West  Level FlightAware Approximate
Sun 05:58:58 PM 29.8940 -110.6030 303° West 419 482 38,000  Level FlightAware ADS-B
Sun 05:59:00 PM 29.7619 -110.5249 303° West  Level FlightAware Approximate
Sun 05:59:43 PM 29.9420 -110.6900 303° West 418 481 38,000  Level FlightAware ADS-B
Sun 06:00:23 PM 29.9840 -110.7640 303° West 419 482 38,000  Level FlightAware ADS-B
Sun 06:00:53 PM 30.0170 -110.8220 303° West 418 481 38,000  Level FlightAware ADS-B
Sun 06:01:33 PM 30.0580 -110.8950 303° West 418 481 38,000  Level FlightAware ADS-B
Sun 06:02:18 PM 30.1050 -110.9790 303° West 417 480 38,000  Level FlightAware ADS-B
Sun 06:02:58 PM 30.1470 -111.0540 303° West 417 480 38,000  Level FlightAware ADS-B
Sun 06:03:38 PM 30.1880 -111.1270 303° West 416 479 38,000  Level FlightAware ADS-B
Sun 06:04:23 PM 30.2350 -111.2120 303° West 418 481 38,000  Level FlightAware ADS-B
Sun 06:05:03 PM 30.2780 -111.2900 303° West 420 483 38,000  Level FlightAware ADS-B
Sun 06:05:48 PM 30.3260 -111.3750 303° West 423 487 38,000  Level FlightAware ADS-B
Sun 06:06:28 PM 30.3670 -111.4490 303° West 423 487 38,000  Level FlightAware ADS-B
Sun 06:07:13 PM 30.4160 -111.5380 303° West 424 488 38,000  Level FlightAware ADS-B
Sun 06:07:53 PM 30.4570 -111.6130 302° West 424 488 38,000  Level FlightAware ADS-B
Sun 06:08:28 PM 30.4900 -111.6720 303° West 423 487 38,000  Level FlightAware ADS-B
Sun 06:09:13 PM 30.5330 -111.7530 302° West 423 487 38,000  Level FlightAware ADS-B
Sun 06:09:58 PM 30.5880 -111.8520 303° West 422 486 38,000  Level FlightAware ADS-B
Sun 06:10:43 PM 30.6350 -111.9370 303° West 422 486 38,000  Level FlightAware ADS-B
Sun 06:11:23 PM 30.6760 -112.0130 302° West 423 487 38,000  Level FlightAware ADS-B
Sun 06:12:08 PM 30.7240 -112.1020 302° West 423 487 38,000  Level FlightAware ADS-B
Sun 06:12:48 PM 30.7640 -112.1750 303° West 424 488 38,000  Level FlightAware ADS-B
Sun 06:13:28 PM 30.8060 -112.2520 302° West 423 487 38,000  Level FlightAware ADS-B
Sun 06:14:13 PM 30.8510 -112.3340 303° West 423 487 38,000  Level FlightAware ADS-B
Sun 06:14:48 PM 30.8870 -112.4000 302° West 424 488 38,000  Level FlightAware ADS-B
Sun 06:15:33 PM 30.9320 -112.4860 301° West 424 488 38,000  Level FlightAware ADS-B
Sun 06:16:13 PM 30.9660 -112.5530 301° West 424 488 38,000  Level FlightAware ADS-B
Sun 06:16:58 PM 31.0240 -112.6560 303° West 426 490 38,000  Level FlightAware ADS-B
Sun 06:17:43 PM 31.0710 -112.7440 302° West 427 491 38,000  Level FlightAware ADS-B
Sun 06:18:23 PM 31.1110 -112.8180 302° West 429 494 38,000  Level FlightAware ADS-B
Sun 06:19:08 PM 31.1610 -112.9110 302° West 429 494 38,000  Level FlightAware ADS-B
Sun 06:19:48 PM 31.2010 -112.9880 301° West 428 493 38,000  Level FlightAware ADS-B
Sun 06:20:28 PM 31.2410 -113.0620 302° West 428 493 38,000  Level FlightAware ADS-B
Sun 06:21:28 PM 31.3020 -113.1800 301° West 428 493 38,000  Level FlightAware ADS-B
Sun 06:22:18 PM 31.3620 -113.2910 302° West 429 494 38,000  Level FlightAware ADS-B
Sun 06:23:03 PM 31.4020 -113.3690 301° West 429 494 38,000  Level FlightAware ADS-B
Sun 06:23:38 PM 31.4420 -113.4350 305° West 38,000  Level FlightAware ADS-B
Sun 06:26:00 PM 31.5873 -113.7066 306° West  Level Estimated
Sun 06:26:58 PM 31.6600 -113.8270 275° West 427 491 38,000  Level FlightAware ADS-B
Sun 06:27:00 PM 31.5970 -113.8417 275° West  Level FlightAware Approximate
Sun 06:27:38 PM 31.6960 -113.8940 302° West 427 491 38,000  Level FlightAware ADS-B
Sun 06:28:28 PM 31.7400 -113.9780 302° West 427 491 38,000  Level FlightAware ADS-B
Sun 06:29:08 PM 31.7760 -114.0450 302° West 427 491 38,000  Level FlightAware ADS-B
Sun 06:29:48 PM 31.8120 -114.1120 302° West 427 491 38,000  Level FlightAware ADS-B
Sun 06:30:28 PM 31.8470 -114.1790 302° West 427 491 38,000  Level FlightAware ADS-B
Sun 06:31:08 PM 31.8830 -114.2460 302° West 427 491 38,000  Level FlightAware ADS-B
Sun 06:31:58 PM 31.9270 -114.3300 302° West 427 491 38,000  Level FlightAware ADS-B
Sun 06:32:38 PM 31.9630 -114.3970 302° West 427 491 38,000  Level FlightAware ADS-B
Sun 06:33:18 PM 31.9980 -114.4640 302° West 427 491 38,000  Level FlightAware ADS-B
Sun 06:33:58 PM 32.0340 -114.5310 302° West 427 491 38,000  Level FlightAware ADS-B
Sun 06:34:38 PM 32.0700 -114.5980 302° West 427 491 38,000  Level FlightAware ADS-B
Sun 06:35:18 PM 32.1050 -114.6660 301° West 427 491 38,000  Level FlightAware ADS-B
Sun 06:36:08 PM 32.1500 -114.7500 302° West 427 491 38,000 -60 Level FlightAware ADS-B
Sun 06:36:58 PM 32.2978 -114.9897 301° West 427 491 37,900  Descending Los Angeles Center
Sun 06:37:57 PM 32.3603 -115.1078 302° West 424 488 38,000 50 Climbing Los Angeles Center
Sun 06:38:00 PM 32.2633 -114.9668 302° West  Level FlightAware Approximate
Sun 06:38:59 PM 32.4231 -115.2258 302° West 424 488 38,000  Level Los Angeles Center
Sun 06:39:00 PM 32.3239 -115.0831 302° West  Level FlightAware Approximate
Sun 06:40:00 PM 32.3844 -115.1997 302° West  Level FlightAware Approximate
Sun 06:41:00 PM 32.4447 -115.3163 302° West  Level FlightAware Approximate
Sun 06:42:00 PM 32.5050 -115.4331 301° West  Level FlightAware Approximate
Sun 06:44:28 PM 32.7710 -115.8770 302° West 418 481 38,000  Level FlightAware ADS-B
Sun 06:45:08 PM 32.8110 -115.9540 302° West 418 481 38,000 -424 Level FlightAware ADS-B
Sun 06:45:53 PM 32.8560 -116.0380 303° West 397 457 37,400 -1,933 Descending FlightAware ADS-B
Sun 06:46:38 PM 32.9010 -116.1260 301° West 407 468 35,100 -3,035 Descending FlightAware ADS-B
Sun 06:47:18 PM 32.9410 -116.2010 302° West 417 480 33,100 -3,106 Descending FlightAware ADS-B
Sun 06:48:03 PM 32.9860 -116.2890 301° West 423 487 30,700 -3,106 Descending FlightAware ADS-B
Sun 06:48:43 PM 33.0280 -116.3680 302° West 423 487 28,700 -2,850 Descending FlightAware ADS-B
Sun 06:49:23 PM 33.0680 -116.4460 301° West 414 476 26,900 -2,612 Descending FlightAware ADS-B
Sun 06:50:08 PM 33.1130 -116.5340 301° West 404 465 25,000 -2,047 Descending FlightAware ADS-B
Sun 06:50:48 PM 33.1430 -116.6150 294° West 393 452 24,000 -706 Descending FlightAware ADS-B
Sun 06:51:33 PM 33.1550 -116.7070 279° West 390 449 24,000 -1,271 Level FlightAware ADS-B
Sun 06:52:13 PM 33.1660 -116.7930 279° West 395 455 22,200 -2,550 Descending FlightAware ADS-B
Sun 06:52:53 PM 33.1760 -116.8770 278° West 385 443 20,600 -2,400 Descending FlightAware ADS-B
Sun 06:53:28 PM 33.1850 -116.9510 278° West 376 433 19,200 -2,100 Descending FlightAware ADS-B
Sun 06:54:13 PM 33.1940 -117.0240 278° West 367 422 17,800 -1,933 Descending FlightAware ADS-B
Sun 06:54:58 PM 33.2030 -117.1040 278° West 356 410 16,300 -2,400 Descending FlightAware ADS-B
Sun 06:55:43 PM 33.2170 -117.2100 279° West 341 392 14,200 -2,612 Descending FlightAware ADS-B
Sun 06:56:23 PM 33.2260 -117.2870 278° West 326 375 12,600 -1,482 Descending FlightAware ADS-B
Sun 06:57:08 PM 33.2340 -117.3660 277° West 326 375 12,100 -353 Descending FlightAware ADS-B
Sun 06:57:48 PM 33.2410 -117.4390 277° West 330 380 12,100  Level FlightAware ADS-B
Sun 06:58:33 PM 33.2460 -117.5200 274° West 330 380 12,100  Level FlightAware ADS-B
Sun 06:59:13 PM 33.2520 -117.5940 276° West 330 380 12,100  Level FlightAware ADS-B
Sun 06:59:28 PM 33.2630 -117.6200 297° West 329 379 12,100  Level FlightAware ADS-B
Sun 07:00:08 PM 33.3060 -117.6680 317° Northwest 332 382 12,100  Level FlightAware ADS-B
Sun 07:00:53 PM 33.3570 -117.7220 319° Northwest 336 387 12,100  Level FlightAware ADS-B
Sun 07:01:33 PM 33.4050 -117.7730 318° Northwest 332 382 12,100 -71 Level FlightAware ADS-B
Sun 07:02:18 PM 33.4550 -117.8250 319° Northwest 291 335 12,000 -706 Descending FlightAware ADS-B
Sun 07:02:58 PM 33.4950 -117.8640 321° Northwest 274 315 11,100 -1,575 Descending FlightAware ADS-B
Sun 07:03:38 PM 33.5330 -117.9040 319° Northwest 265 305 9,900 -1,971 Descending FlightAware ADS-B
Sun 07:04:08 PM 33.5610 -117.9330 319° Northwest 268 308 8,800 -2,000 Descending FlightAware ADS-B
Sun 07:04:23 PM 33.5730 -117.9450 320° Northwest 267 307 8,400 -1,650 Descending FlightAware ADS-B
Sun 07:04:48 PM 33.5980 -117.9700 320° Northwest 262 302 7,700 -1,418 Descending FlightAware ADS-B
Sun 07:05:18 PM 33.6270 -117.9960 323° Northwest 258 297 7,100 -655 Descending FlightAware ADS-B
Sun 07:05:43 PM 33.6540 -118.0080 340° North 256 295 7,100  Level FlightAware ADS-B
Sun 07:06:13 PM 33.6870 -118.0200 343° North 254 292 7,100  Level FlightAware ADS-B
Sun 07:06:43 PM 33.7210 -118.0320 344° North 254 292 7,100  Level FlightAware ADS-B
Sun 07:07:08 PM 33.7510 -118.0430 343° North 254 292 7,100  Level FlightAware ADS-B
Sun 07:07:38 PM 33.7830 -118.0540 344° North 227 261 7,100  Level FlightAware ADS-B
Sun 07:08:08 PM 33.8070 -118.0510 North 219 252 7,100 -109 Level FlightAware ADS-B
Sun 07:08:33 PM 33.8320 -118.0470 North 215 247 7,000 -982 Descending FlightAware ADS-B
Sun 07:09:03 PM 33.8660 -118.0410 North 218 251 6,200 -1,560 Descending FlightAware ADS-B
Sun 07:09:23 PM 33.8870 -118.0380 North 219 252 5,700 -1,350 Descending FlightAware ADS-B
Sun 07:09:43 PM 33.9070 -118.0420 351° North 217 250 5,300 -840 Descending FlightAware ADS-B
Sun 07:10:13 PM 33.9350 -118.0510 345° North 205 236 5,000 -1,091 Descending FlightAware ADS-B
Sun 07:10:38 PM 33.9540 -118.0710 319° Northwest 217 250 4,300 -982 Descending FlightAware ADS-B
Sun 07:11:08 PM 33.9650 -118.1050 291° West 221 254 4,100 -200 Descending FlightAware ADS-B
Sun 07:11:38 PM 33.9620 -118.1410 264° West 222 255 4,100 -545 Level FlightAware ADS-B
Sun 07:12:03 PM 33.9590 -118.1720 263° West 223 257 3,600 -1,091 Descending FlightAware ADS-B
Sun 07:12:33 PM 33.9550 -118.2040 261° West 215 247 3,100 -1,091 Descending FlightAware ADS-B
Sun 07:12:58 PM 33.9520 -118.2360 264° West 201 231 2,600 -1,050 Descending FlightAware ADS-B
Sun 07:13:13 PM 33.9510 -118.2520 266° West 194 223 2,400 -667 Descending FlightAware ADS-B
Sun 07:13:43 PM 33.9490 -118.2690 262° West 195 224 2,100 -764 Descending FlightAware ADS-B
Sun 07:14:08 PM 33.9460 -118.2930 261° West 181 208 1,700 -1,050 Descending FlightAware ADS-B
Sun 07:14:23 PM 33.9450 -118.3090 266° West 174 200 1,400 -480 Descending FlightAware ADS-B
Sun 07:14:58 PM 33.9420 -118.3370 263° West 160 184 1,300 -771 Descending FlightAware ADS-B
Sun 07:15:33 PM 33.9400 -118.3620 264° West 137 158 500 -1,000 Descending FlightAware ADS-B
Sun 07:15:58 PM 33.9380 -118.3760 260° West 138 159 300 -200 Descending FlightAware ADS-B
Sun 07:16:33 PM 33.9360 -118.3970 263° West 139 160 300  Level FlightAware ADS-B
Sun 07:23:00 PM 33.9333 -118.4000 296° West  Level FlightAware Approximate
Sun 07:24:00 PM 33.9425 -118.4081 296° West  Level Estimated

Login

Don't have an account? Register now (free) for customized features, flight alerts, and more!